createdAt,value
2019-04-04T00:02:24.920Z,97316.62
2019-04-04T00:05:38.415Z,97316.53
2019-04-04T00:08:51.888Z,97317.85
2019-04-04T00:12:06.061Z,97311.28
2019-04-04T00:15:20.885Z,97313.34
2019-04-04T00:18:34.702Z,97296.20
2019-04-04T00:21:48.489Z,97298.98
2019-04-04T00:25:02.177Z,97301.25
2019-04-04T00:28:15.629Z,97303.52
2019-04-04T00:31:29.221Z,97303.92
2019-04-04T00:34:42.708Z,97309.41
2019-04-04T00:37:56.160Z,97310.84
2019-04-04T00:41:11.037Z,97313.39
2019-04-04T00:44:25.456Z,97298.47
2019-04-04T00:47:39.117Z,97295.84
2019-04-04T00:50:52.567Z,97301.93
2019-04-04T00:54:06.054Z,97292.62
2019-04-04T00:57:19.553Z,97282.63
2019-04-04T01:00:33.208Z,97266.00
2019-04-04T01:03:46.690Z,97264.72
2019-04-04T01:07:00.450Z,97266.64
2019-04-04T01:10:14.140Z,97255.77
2019-04-04T01:13:27.822Z,97238.14
2019-04-04T01:16:41.394Z,97232.20
2019-04-04T01:19:54.877Z,97225.08
2019-04-04T01:23:08.557Z,97218.06
2019-04-04T01:26:22.026Z,97217.21
2019-04-04T01:29:35.507Z,97214.74
2019-04-04T01:32:49.095Z,97202.41
2019-04-04T01:36:02.763Z,97190.50
2019-04-04T01:39:16.445Z,97175.75
2019-04-04T01:42:29.901Z,97162.67
2019-04-04T01:45:44.193Z,97159.00
2019-04-04T01:48:58.758Z,97164.70
2019-04-04T01:52:12.514Z,97180.00
2019-04-04T01:55:25.999Z,97188.91
2019-04-04T01:58:41.683Z,97197.83
2019-04-04T02:01:55.397Z,97210.05
2019-04-04T02:05:09.174Z,97206.39
2019-04-04T02:08:22.664Z,97218.45
2019-04-04T02:11:37.621Z,97191.99
2019-04-04T02:14:51.499Z,97189.45
2019-04-04T02:18:05.057Z,97208.80
2019-04-04T02:21:18.542Z,97196.86
2019-04-04T02:24:32.432Z,97171.37
2019-04-04T02:27:46.096Z,97167.66
2019-04-04T02:30:59.969Z,97160.50
2019-04-04T02:34:13.546Z,97151.91
2019-04-04T02:37:27.642Z,97156.80
2019-04-04T02:40:42.147Z,97150.66
2019-04-04T02:43:59.415Z,97164.86
2019-04-04T02:47:11.356Z,97174.84
2019-04-04T02:50:24.832Z,97169.89
2019-04-04T02:53:38.287Z,97164.23
2019-04-04T02:56:52.161Z,97161.61
2019-04-04T03:00:07.005Z,97161.55
2019-04-04T03:03:20.915Z,97149.95
2019-04-04T03:06:34.605Z,97162.62
2019-04-04T03:09:48.190Z,97157.50
2019-04-04T03:13:01.678Z,97162.98
2019-04-04T03:16:15.335Z,97160.84
2019-04-04T03:19:28.803Z,97150.26
2019-04-04T03:22:42.289Z,97139.88
2019-04-04T03:25:55.732Z,97134.23
2019-04-04T03:29:10.633Z,97122.94
2019-04-04T03:32:24.475Z,97116.20
2019-04-04T03:35:38.512Z,97128.20
2019-04-04T03:38:51.961Z,97109.67
2019-04-04T03:42:08.050Z,97091.20
2019-04-04T03:45:23.894Z,97086.89
2019-04-04T03:48:36.563Z,97086.43
2019-04-04T03:51:50.286Z,97080.14
2019-04-04T03:55:04.845Z,97074.37
2019-04-04T03:58:18.519Z,97069.39
2019-04-04T04:01:32.258Z,97072.91
2019-04-04T04:04:45.734Z,97063.52
2019-04-04T04:07:59.493Z,97061.83
2019-04-04T04:11:12.968Z,97061.94
2019-04-04T04:14:26.424Z,97062.77
2019-04-04T04:17:39.897Z,97047.88
2019-04-04T04:20:53.369Z,97053.45
2019-04-04T04:24:06.840Z,97063.45
2019-04-04T04:27:20.351Z,97076.69
2019-04-04T04:30:33.778Z,97074.36
2019-04-04T04:33:47.247Z,97073.28
2019-04-04T04:37:01.016Z,97074.84
2019-04-04T04:40:15.425Z,97078.38
2019-04-04T04:43:32.196Z,97071.33
2019-04-04T04:46:49.910Z,97065.36
2019-04-04T04:50:00.495Z,97067.70
2019-04-04T04:53:14.142Z,97075.45
2019-04-04T04:56:30.970Z,97083.56
2019-04-04T04:59:44.561Z,97081.02
2019-04-04T05:02:58.528Z,97078.88
2019-04-04T05:06:11.999Z,97083.09
2019-04-04T05:09:25.463Z,97078.47
2019-04-04T05:12:38.938Z,97086.31
2019-04-04T05:15:52.407Z,97093.27
2019-04-04T05:19:06.207Z,97092.48
2019-04-04T05:22:19.671Z,97088.77
2019-04-04T05:25:33.368Z,97077.42
2019-04-04T05:28:46.842Z,97075.06
2019-04-04T05:32:00.319Z,97085.37
2019-04-04T05:35:15.213Z,97079.08
2019-04-04T05:38:29.190Z,97073.22
2019-04-04T05:41:42.892Z,97068.70
2019-04-04T05:44:56.389Z,97070.62
2019-04-04T05:48:09.871Z,97073.45
2019-04-04T05:51:23.699Z,97079.23
2019-04-04T05:54:39.097Z,97082.86
2019-04-04T05:57:52.545Z,97090.69
2019-04-04T06:01:07.478Z,97093.37
2019-04-04T06:04:21.611Z,97100.09
2019-04-04T06:07:36.551Z,97106.51
2019-04-04T06:10:50.940Z,97108.72
2019-04-04T06:14:04.645Z,97110.24
2019-04-04T06:17:18.979Z,97106.84
2019-04-04T06:20:32.434Z,97104.02
2019-04-04T06:23:45.957Z,97103.81
2019-04-04T06:26:59.665Z,97108.17
2019-04-04T06:30:13.449Z,97106.73
2019-04-04T06:33:27.303Z,97111.63
2019-04-04T06:36:41.077Z,97129.39
2019-04-04T06:39:58.575Z,97133.17
2019-04-04T06:43:11.727Z,97119.97
2019-04-04T06:46:25.707Z,97117.75
2019-04-04T06:49:40.020Z,97119.14
2019-04-04T06:52:56.404Z,97110.63
2019-04-04T06:56:09.395Z,97113.97
2019-04-04T06:59:23.458Z,97097.64
2019-04-04T07:02:37.171Z,97102.37
2019-04-04T07:05:50.926Z,97104.48
2019-04-04T07:09:06.623Z,97109.12
2019-04-04T07:12:24.210Z,97093.86
2019-04-04T07:15:46.117Z,97107.77
2019-04-04T07:18:51.843Z,97125.70
2019-04-04T07:22:05.438Z,97120.45
2019-04-04T07:25:19.010Z,97141.68
2019-04-04T07:28:32.902Z,97136.47
2019-04-04T07:31:47.240Z,97134.16
2019-04-04T07:35:00.849Z,97135.78
2019-04-04T07:38:14.423Z,97142.91
2019-04-04T07:41:28.170Z,97141.63
2019-04-04T07:44:41.932Z,97138.69
2019-04-04T07:47:55.453Z,97142.78
2019-04-04T07:51:08.930Z,97137.73
2019-04-04T07:54:22.403Z,97138.72
2019-04-04T07:57:36.016Z,97139.88
2019-04-04T08:00:49.587Z,97131.78
2019-04-04T08:04:03.160Z,97145.33
2019-04-04T08:07:16.724Z,97145.53
2019-04-04T08:10:30.298Z,97141.23
2019-04-04T08:13:43.876Z,97142.91
2019-04-04T08:16:57.348Z,97136.27
2019-04-04T08:20:11.335Z,97130.97
2019-04-04T08:23:25.213Z,97122.06
2019-04-04T08:26:38.978Z,97122.34
2019-04-04T08:29:52.561Z,97123.78
2019-04-04T08:33:06.397Z,97127.55
2019-04-04T08:36:19.909Z,97118.95
2019-04-04T08:39:33.712Z,97125.45
2019-04-04T08:42:47.187Z,97117.25
2019-04-04T08:46:00.877Z,97112.16
2019-04-04T08:49:14.914Z,97128.48
2019-04-04T08:52:30.750Z,97120.84
2019-04-04T08:55:46.312Z,97122.80
2019-04-04T08:59:01.849Z,97129.16
2019-04-04T09:02:16.753Z,97138.86
2019-04-04T09:05:32.356Z,97143.10
2019-04-04T09:08:47.423Z,97142.98
2019-04-04T09:12:02.526Z,97147.31
2019-04-04T09:15:17.721Z,97144.17
2019-04-04T09:18:32.460Z,97123.88
2019-04-04T09:21:47.728Z,97114.68
2019-04-04T09:25:04.169Z,97107.83
2019-04-04T09:28:19.125Z,97093.75
2019-04-04T09:31:34.512Z,97078.31
2019-04-04T09:34:53.180Z,97080.73
2019-04-04T09:38:09.385Z,97094.57
2019-04-04T09:41:24.700Z,97092.73
2019-04-04T09:44:41.414Z,97082.90
2019-04-04T09:47:56.727Z,97084.94
2019-04-04T09:51:12.403Z,97080.83
2019-04-04T09:54:29.705Z,97087.28
2019-04-04T09:57:45.809Z,97108.55
2019-04-04T10:01:00.807Z,97122.66
2019-04-04T10:04:17.603Z,97131.68
2019-04-04T10:07:33.525Z,97140.50
2019-04-04T10:10:50.392Z,97153.43
2019-04-04T10:14:09.341Z,97153.52
2019-04-04T10:17:25.065Z,97162.22
2019-04-04T10:20:40.984Z,97153.89
2019-04-04T10:23:58.229Z,97142.95
2019-04-04T10:27:13.783Z,97153.43
2019-04-04T10:30:29.232Z,97156.66
2019-04-04T10:33:45.740Z,97166.49
2019-04-04T10:37:00.945Z,97185.77
2019-04-04T10:40:16.695Z,97194.63
2019-04-04T10:43:33.117Z,97183.38
2019-04-04T10:46:48.910Z,97177.20
2019-04-04T10:50:05.648Z,97176.52
2019-04-04T10:53:19.166Z,97168.06
2019-04-04T10:56:32.906Z,97177.50
2019-04-04T10:59:46.694Z,97179.66
2019-04-04T11:03:02.277Z,97177.28
2019-04-04T11:06:23.339Z,97183.83
2019-04-04T11:09:42.177Z,97181.64
2019-04-04T11:12:55.286Z,97176.02
2019-04-04T11:16:09.195Z,97165.93
2019-04-04T11:19:31.073Z,97160.23
2019-04-04T11:22:39.944Z,97154.50
2019-04-04T11:25:53.959Z,97144.61
2019-04-04T11:29:07.444Z,97157.98
2019-04-04T11:32:21.032Z,97162.20
2019-04-04T11:35:34.526Z,97155.53
2019-04-04T11:38:48.796Z,97154.71
2019-04-04T11:42:02.786Z,97145.75
2019-04-04T11:45:16.623Z,97150.11
2019-04-04T11:48:30.627Z,97141.55
2019-04-04T11:52:03.876Z,97146.74
2019-04-04T11:55:17.719Z,97157.88
2019-04-04T11:58:32.129Z,97160.23
2019-04-04T12:01:46.558Z,97152.19
2019-04-04T12:05:00.606Z,97152.94
2019-04-04T12:08:14.133Z,97166.67
2019-04-04T12:11:27.973Z,97190.06
2019-04-04T12:14:42.045Z,97203.34
2019-04-04T12:17:55.523Z,97225.99
2019-04-04T12:21:09.359Z,97229.19
2019-04-04T12:24:23.004Z,97221.23
2019-04-04T12:27:36.529Z,97217.28
2019-04-04T12:30:50.103Z,97222.57
2019-04-04T12:34:04.007Z,97241.23
2019-04-04T12:37:19.011Z,97261.84
2019-04-04T12:40:36.454Z,97264.28
2019-04-04T12:43:53.371Z,97262.13
2019-04-04T12:47:08.774Z,97262.08
2019-04-04T12:50:25.018Z,97267.26
2019-04-04T12:53:40.337Z,97270.31
2019-04-04T12:56:56.136Z,97272.47
2019-04-04T13:00:12.889Z,97274.33
2019-04-04T13:03:28.202Z,97281.00
2019-04-04T13:06:44.760Z,97288.00
2019-04-04T13:10:10.866Z,97286.24
2019-04-04T13:13:18.220Z,97287.81
2019-04-04T13:16:33.015Z,97284.95
2019-04-04T13:19:50.833Z,97283.67
2019-04-04T13:23:05.766Z,97286.70
2019-04-04T13:26:22.111Z,97286.22
2019-04-04T13:29:38.040Z,97277.41
2019-04-04T13:32:54.031Z,97255.11
2019-04-04T13:36:10.411Z,97238.30
2019-04-04T13:39:25.556Z,97242.98
2019-04-04T13:42:40.934Z,97254.02
2019-04-04T13:45:55.812Z,97262.13
2019-04-04T13:49:13.983Z,97264.78
2019-04-04T13:52:32.515Z,97267.64
2019-04-04T13:55:48.136Z,97280.54
2019-04-04T13:59:05.850Z,97307.25
2019-04-04T14:02:19.984Z,97298.21
2019-04-04T14:05:33.556Z,97263.86
2019-04-04T14:08:47.176Z,97282.30
2019-04-04T14:12:00.781Z,97300.70
2019-04-04T14:15:14.771Z,97313.34
2019-04-04T14:18:39.076Z,97312.56
2019-04-04T14:21:44.181Z,97299.22
2019-04-04T14:24:57.663Z,97295.80
2019-04-04T14:28:11.419Z,97299.45
2019-04-04T14:31:25.047Z,97311.01
2019-04-04T14:34:38.542Z,97312.40
2019-04-04T14:37:54.485Z,97302.69
2019-04-04T14:41:11.396Z,97301.33
2019-04-04T14:44:23.676Z,97303.34
2019-04-04T14:47:37.176Z,97318.53
2019-04-04T14:50:50.646Z,97330.95
2019-04-04T14:54:04.405Z,97331.53
2019-04-04T14:57:17.907Z,97344.75
2019-04-04T15:00:31.349Z,97348.70
2019-04-04T15:03:44.824Z,97339.52
2019-04-04T15:06:58.551Z,97340.97
2019-04-04T15:10:12.737Z,97335.03
2019-04-04T15:13:26.419Z,97320.76
2019-04-04T15:16:39.973Z,97327.86
2019-04-04T15:19:53.561Z,97320.17
2019-04-04T15:23:07.395Z,97349.89
2019-04-04T15:26:20.869Z,97354.83
2019-04-04T15:29:34.711Z,97366.55
2019-04-04T15:32:48.192Z,97372.94
2019-04-04T15:36:01.880Z,97382.56
2019-04-04T15:39:16.052Z,97399.66
2019-04-04T15:42:29.940Z,97401.00
2019-04-04T15:45:43.515Z,97394.84
2019-04-04T15:48:57.034Z,97399.66
2019-04-04T15:52:10.517Z,97395.42
2019-04-04T15:55:23.997Z,97397.75
2019-04-04T15:58:37.764Z,97393.84
2019-04-04T16:01:51.378Z,97381.65
2019-04-04T16:05:05.418Z,97372.19
2019-04-04T16:08:18.891Z,97367.88
2019-04-04T16:11:32.465Z,97371.30
2019-04-04T16:14:46.056Z,97378.45
2019-04-04T16:18:01.310Z,97376.17
2019-04-04T16:21:14.965Z,97387.69
2019-04-04T16:24:29.315Z,97395.47
2019-04-04T16:27:43.040Z,97382.20
2019-04-04T16:30:57.112Z,97380.60
2019-04-04T16:34:10.873Z,97381.29
2019-04-04T16:37:24.338Z,97393.38
2019-04-04T16:40:37.896Z,97417.08
2019-04-04T16:43:51.372Z,97410.69
2019-04-04T16:47:04.976Z,97401.45
2019-04-04T16:50:18.676Z,97405.95
2019-04-04T16:53:32.449Z,97415.56
2019-04-04T16:56:48.721Z,97410.84
2019-04-04T17:00:05.825Z,97424.05
2019-04-04T17:03:19.390Z,97447.77
2019-04-04T17:06:33.401Z,97432.06
2019-04-04T17:09:46.974Z,97426.27
2019-04-04T17:13:00.630Z,97449.38
2019-04-04T17:16:14.527Z,97476.91
2019-04-04T17:19:28.129Z,97500.77
2019-04-04T17:22:41.876Z,97499.59
2019-04-04T17:25:55.639Z,97493.59
2019-04-04T17:29:09.469Z,97499.01
2019-04-04T17:32:22.931Z,97505.69
2019-04-04T17:35:37.219Z,97502.33
2019-04-04T17:38:51.016Z,97489.55
2019-04-04T17:42:04.881Z,97480.23
2019-04-04T17:45:19.584Z,97480.00
2019-04-04T17:48:34.631Z,97472.95
2019-04-04T17:51:49.135Z,97470.27
2019-04-04T17:55:03.953Z,97468.96
2019-04-04T17:58:18.395Z,97479.73
2019-04-04T18:01:34.287Z,97481.16
2019-04-04T18:04:48.450Z,97476.14
2019-04-04T18:08:02.348Z,97486.34
2019-04-04T18:11:15.954Z,97497.84
2019-04-04T18:14:29.534Z,97511.16
2019-04-04T18:17:43.027Z,97510.61
2019-04-04T18:20:57.142Z,97506.02
2019-04-04T18:24:10.979Z,97519.46
2019-04-04T18:27:25.036Z,97534.73
2019-04-04T18:30:38.504Z,97533.73
2019-04-04T18:33:52.119Z,97525.55
2019-04-04T18:37:05.881Z,97525.44
2019-04-04T18:40:19.541Z,97522.61
2019-04-04T18:43:33.480Z,97530.66
2019-04-04T18:46:47.295Z,97547.54
2019-04-04T18:50:01.151Z,97545.82
2019-04-04T18:53:14.732Z,97530.40
2019-04-04T18:56:28.203Z,97540.20
2019-04-04T18:59:41.663Z,97555.50
2019-04-04T19:02:55.255Z,97562.62
2019-04-04T19:06:08.941Z,97574.61
2019-04-04T19:09:22.955Z,97577.80
2019-04-04T19:12:36.667Z,97569.94
2019-04-04T19:15:50.247Z,97570.00
2019-04-04T19:19:03.944Z,97568.19
2019-04-04T19:22:17.425Z,97586.31
2019-04-04T19:25:30.896Z,97590.14
2019-04-04T19:28:44.473Z,97602.79
2019-04-04T19:31:58.469Z,97591.28
2019-04-04T19:35:12.427Z,97565.80
2019-04-04T19:38:25.905Z,97569.02
2019-04-04T19:41:39.593Z,97585.91
2019-04-04T19:44:53.865Z,97585.37
2019-04-04T19:48:07.543Z,97595.02
2019-04-04T19:51:21.049Z,97595.55
2019-04-04T19:54:34.774Z,97594.27
2019-04-04T19:57:48.249Z,97600.30
2019-04-04T20:01:03.735Z,97600.68
2019-04-04T20:04:17.316Z,97604.50
2019-04-04T20:07:30.791Z,97602.47
2019-04-04T20:10:44.268Z,97605.39
2019-04-04T20:13:57.800Z,97607.42
2019-04-04T20:17:11.276Z,97615.80
2019-04-04T20:20:25.585Z,97622.62
2019-04-04T20:23:39.065Z,97633.05
2019-04-04T20:26:53.097Z,97641.44
2019-04-04T20:30:07.871Z,97652.16
2019-04-04T20:33:21.296Z,97655.38
2019-04-04T20:36:34.779Z,97656.03
2019-04-04T20:39:48.504Z,97650.72
2019-04-04T20:43:02.335Z,97648.30
2019-04-04T20:46:15.797Z,97641.14
2019-04-04T20:49:29.368Z,97636.05
2019-04-04T20:52:42.851Z,97628.53
2019-04-04T20:55:56.307Z,97629.02
2019-04-04T20:59:09.790Z,97624.72
2019-04-04T21:02:23.533Z,97625.13
2019-04-04T21:05:37.269Z,97626.59
2019-04-04T21:08:50.758Z,97629.75
2019-04-04T21:12:04.374Z,97622.73
2019-04-04T21:15:17.840Z,97626.20
2019-04-04T21:18:31.304Z,97648.72
2019-04-04T21:21:45.009Z,97648.84
2019-04-04T21:24:58.698Z,97659.52
2019-04-04T21:28:12.180Z,97663.33
2019-04-04T21:31:25.890Z,97672.38
2019-04-04T21:34:39.714Z,97674.00
2019-04-04T21:37:53.188Z,97673.87
2019-04-04T21:41:06.763Z,97680.28
2019-04-04T21:44:20.500Z,97684.19
2019-04-04T21:47:33.975Z,97683.31
2019-04-04T21:50:47.985Z,97682.16
2019-04-04T21:54:01.560Z,97683.44
2019-04-04T21:57:15.140Z,97690.55
2019-04-04T22:00:36.399Z,97684.09
2019-04-04T22:03:49.869Z,97684.84
2019-04-04T22:07:03.872Z,97688.58
2019-04-04T22:10:17.550Z,97688.66
2019-04-04T22:13:31.015Z,97680.80
2019-04-04T22:16:44.483Z,97684.61
2019-04-04T22:19:57.947Z,97682.86
2019-04-04T22:23:11.411Z,97680.97
2019-04-04T22:26:24.875Z,97684.91
2019-04-04T22:29:38.345Z,97687.49
2019-04-04T22:32:51.928Z,97691.08
2019-04-04T22:36:05.933Z,97687.52
2019-04-04T22:39:19.670Z,97689.84
2019-04-04T22:42:33.267Z,97700.53
2019-04-04T22:45:46.823Z,97704.38
2019-04-04T22:49:00.393Z,97707.47
2019-04-04T22:52:13.855Z,97713.30
2019-04-04T22:55:27.603Z,97711.02
2019-04-04T22:58:41.076Z,97712.59
2019-04-04T23:01:54.544Z,97735.73
2019-04-04T23:05:08.220Z,97738.53
2019-04-04T23:08:21.681Z,97742.25
2019-04-04T23:11:35.771Z,97741.62
2019-04-04T23:14:49.353Z,97740.09
2019-04-04T23:18:03.110Z,97745.69
2019-04-04T23:21:16.934Z,97742.25
2019-04-04T23:24:30.503Z,97745.91
2019-04-04T23:27:43.962Z,97744.63
2019-04-04T23:30:57.783Z,97748.84
2019-04-04T23:34:11.248Z,97746.04
2019-04-04T23:37:24.715Z,97750.34
2019-04-04T23:40:38.462Z,97746.92
2019-04-04T23:43:51.936Z,97735.24
2019-04-04T23:47:05.635Z,97727.25
2019-04-04T23:50:19.099Z,97727.63
2019-04-04T23:53:32.622Z,97728.14
2019-04-04T23:56:46.591Z,97723.96
